• Join FlightAware (Why Join?)
  • Login
  • US Flag 
05:28AM EDT


 

Airport Tracker/Info


-or-


 

Live Flight TrackerFlight Track Log ✈ N93974 ✈ 07-May-2013 ✈ KAWG - KFNL

Flight Track Log - Related Links

Times and Time Zones

All times are in EDT time to prevent confusion due to time zone crossing. See the N93974 flight status page for this flight to view local times or setup timezone preferences in your user account.

Time Position Orientation Groundspeed Altitude Reporting Facility
EDT Latitude Longitude Course Direction KTS MPH feet Rate Location/Type
02:20PM 41.2669 -92.3892 270° West 120 138 8,000  Level Chicago Center
02:21PM 41.2714 -92.4356 277° West 123 142 8,000  Level Chicago Center
02:22PM 41.2750 -92.4906 275° West 132 152 8,000 60 Level Chicago Center
02:23PM 41.2772 -92.5467 273° West 144 166 8,200 240 Climbing Chicago Center
02:24PM 41.2753 -92.5989 267° West 146 168 8,500 180 Climbing Chicago Center
02:25PM 41.2733 -92.0257 270° West  Level Estimated
02:25PM 41.2772 -92.6694 272° West 139 160 8,600  Level Minneapolis Center
02:26PM 41.2739 -92.7250 265° West 149 171 8,500 -60 Descending Minneapolis Center
02:27PM 41.2714 -92.7883 267° West 159 183 8,500 -60 Level Minneapolis Center
02:28PM 41.2711 -92.8436 270° West 153 176 8,400  Descending Minneapolis Center
02:29PM 41.2761 -92.8850 279° West 149 171 8,500 60 Climbing Minneapolis Center
02:30PM 41.2750 -92.9403 268° West 149 171 8,600 240 Climbing Minneapolis Center
02:31PM 41.2761 -92.9931 272° West 136 157 9,000 240 Climbing Minneapolis Center
02:32PM 41.2767 -93.0400 271° West 129 148 9,200 180 Climbing Minneapolis Center
02:33PM 41.2675 -93.0756 251° West 131 151 9,300 240 Climbing Minneapolis Center
02:34PM 41.2664 -93.1286 268° West 134 154 9,600 240 Climbing Minneapolis Center
02:35PM 41.2658 -93.1742 269° West 126 145 9,900 240 Climbing Minneapolis Center
02:36PM 41.2642 -93.2247 268° West 128 147 10,100 240 Climbing Minneapolis Center
02:37PM 41.2636 -93.2706 269° West 125 144 10,400 60 Climbing Minneapolis Center
02:38PM 41.2589 -93.3203 263° West 134 154 10,300  Descending Minneapolis Center
02:39PM 41.2608 -93.3803 272° West 149 171 10,500  Climbing Minneapolis Center
02:40PM 41.2592 -93.4358 268° West 150 173 10,400  Descending Minneapolis Center
02:41PM 41.2583 -93.4961 269° West 151 174 10,500  Climbing Minneapolis Center
02:42PM 41.2586 -93.5503 270° West 149 171 10,400  Descending Minneapolis Center
02:43PM 41.2564 -93.6097 267° West 149 171 10,500  Climbing Minneapolis Center
02:44PM 41.2539 -93.6656 267° West 151 174 10,500  Level Minneapolis Center
02:45PM 41.2553 -93.7258 272° West 152 175 10,500  Level Minneapolis Center
02:47PM 41.2539 -93.7828 268° West 154 177 10,500  Level Minneapolis Center
02:48PM 41.2506 -93.8514 266° West 152 175 10,500  Level Minneapolis Center
02:49PM 41.2503 -93.9081 270° West 153 176 10,500  Level Minneapolis Center
02:50PM 41.2494 -93.9675 269° West 151 174 10,500  Level Minneapolis Center
02:51PM 41.2458 -94.0228 265° West 150 173 10,500  Level Minneapolis Center
02:52PM 41.2442 -94.0800 268° West 146 168 10,500  Level Minneapolis Center
02:53PM 41.2436 -94.1344 269° West 148 170 10,500  Level Minneapolis Center
02:54PM 41.2408 -94.1936 266° West 149 171 10,600  Climbing Minneapolis Center
02:55PM 41.2400 -94.2606 269° West 149 171 10,500 -60 Descending Minneapolis Center
02:56PM 41.2356 -94.3144 264° West 148 170 10,500  Level Minneapolis Center
02:57PM 41.2356 -94.3736 270° West 147 169 10,500  Level Minneapolis Center
02:58PM 41.2356 -94.4250 270° West 144 166 10,600  Climbing Minneapolis Center
02:59PM 41.2325 -94.4706 265° West 146 168 10,600  Level Minneapolis Center
03:00PM 41.2306 -94.5372 268° West 146 168 10,600  Level Minneapolis Center
03:01PM 41.2311 -94.5794 271° West 146 168 10,600  Level Minneapolis Center
03:02PM 41.2286 -94.6428 267° West 145 167 10,600  Level Minneapolis Center
03:03PM 41.2269 -94.6947 268° West 142 163 10,600  Level Minneapolis Center
03:04PM 41.2289 -94.7503 273° West 147 169 10,600 -60 Level Minneapolis Center
03:05PM 41.2289 -94.8011 270° West 142 163 10,500 -60 Descending Minneapolis Center
03:06PM 41.2261 -94.8667 267° West 147 169 10,500  Level Minneapolis Center
03:07PM 41.2364 -94.9086 288° West 146 168 10,500  Level Minneapolis Center
03:08PM 41.2231 -94.9208 215° Southwest 147 169 10,500  Level Minneapolis Center
03:08PM 41.2308 -94.9481 291° West 145 167 10,500  Level Minneapolis Center
03:09PM 41.2197 -94.9733 240° Southwest 145 167 10,500  Level Minneapolis Center
03:09PM 41.2308 -95.0036 296° West 147 169 10,500  Level Minneapolis Center
03:10PM 41.2214 -95.0289 244° Southwest 147 169 10,500  Level Minneapolis Center
03:10PM 41.2283 -95.0567 288° West 148 170 10,500  Level Minneapolis Center
03:11PM 41.2169 -95.0822 239° Southwest 147 169 10,500  Level Minneapolis Center
03:11PM 41.2242 -95.1153 286° West 146 168 10,500  Level Minneapolis Center
03:12PM 41.2147 -95.1353 238° Southwest 145 167 10,500  Level Minneapolis Center
03:12PM 41.2219 -95.1683 286° West 143 165 10,500  Level Minneapolis Center
03:13PM 41.2125 -95.1878 237° Southwest 144 166 10,500  Level Minneapolis Center
03:13PM 41.2192 -95.2186 286° West 143 165 10,500  Level Minneapolis Center
03:14PM 41.2103 -95.2508 250° West 143 165 10,500  Level Minneapolis Center
03:15PM 41.2144 -95.3275 274° West 145 167 10,500  Level Minneapolis Center
03:16PM 41.2069 -95.3692 257° West 145 167 10,500  Level Minneapolis Center
03:17PM 41.2094 -95.4361 273° West 145 167 10,500  Level Minneapolis Center
03:18PM 41.2069 -95.4892 266° West 144 166 10,500  Level Minneapolis Center
03:18PM 41.2014 -95.4867 161° South 145 167 10,500  Level Minneapolis Center
03:19PM 41.2044 -95.5419 274° West 142 163 10,500  Level Minneapolis Center
03:19PM 41.2006 -95.5500 237° Southwest 144 166 10,500  Level Minneapolis Center
03:20PM 41.1994 -95.5925 268° West 141 162 10,500  Level Minneapolis Center
03:20PM 41.1967 -95.6017 248° West 142 163 10,500  Level Minneapolis Center
03:21PM 41.1989 -95.6453 274° West 144 166 10,500  Level Minneapolis Center
03:22PM 41.1956 -95.6650 257° West 142 163 10,500  Level Minneapolis Center
03:22PM 41.1983 -95.6981 276° West 143 165 10,500  Level Minneapolis Center
03:23PM 41.1939 -95.7167 252° West 142 163 10,500  Level Minneapolis Center
03:23PM 41.1939 -95.7567 270° West 144 166 10,500  Level Minneapolis Center
03:24PM 41.1914 -95.7711 257° West 143 165 10,500  Level Minneapolis Center
03:24PM 41.1911 -95.8097 269° West 146 168 10,500  Level Minneapolis Center
03:25PM 41.1894 -95.8250 262° West 145 167 10,500  Level Minneapolis Center
03:25PM 41.1883 -95.8625 268° West 144 166 10,500  Level Minneapolis Center
03:26PM 41.1864 -95.8783 261° West 145 167 10,500  Level Minneapolis Center
03:26PM 41.1833 -95.9131 263° West 145 167 10,500  Level Minneapolis Center
03:27PM 41.1836 -95.9325 271° West 145 167 10,500  Level Minneapolis Center
03:27PM 41.1831 -95.9714 269° West 148 170 10,500  Level Minneapolis Center
03:28PM 41.1836 -95.9875 273° West 146 168 10,500  Level Minneapolis Center
03:28PM 41.1806 -96.0269 264° West 148 170 10,500  Level Minneapolis Center
03:29PM 41.1808 -96.0414 271° West 146 168 10,500  Level Minneapolis Center
03:29PM 41.1756 -96.0800 260° West 147 169 10,500  Level Minneapolis Center
03:30PM 41.1772 -96.0958 278° West 147 169 10,500  Level Minneapolis Center
03:30PM 41.1750 -96.1356 266° West 148 170 10,500  Level Minneapolis Center
03:31PM 41.1761 -96.1614 273° West 147 169 10,500  Level Minneapolis Center
03:31PM 41.1700 -96.1886 253° West 145 167 10,500  Level Minneapolis Center
03:32PM 41.1714 -96.2147 274° West 145 167 10,500  Level Minneapolis Center
03:32PM 41.1650 -96.2447 254° West 145 167 10,500  Level Minneapolis Center
03:33PM 41.1697 -96.2686 285° West 145 167 10,500  Level Minneapolis Center
03:33PM 41.1644 -96.3028 258° West 148 170 10,500  Level Minneapolis Center
03:34PM 41.1678 -96.3242 282° West 149 171 10,500  Level Minneapolis Center
03:35PM 41.1656 -96.3786 267° West 148 170 10,500  Level Minneapolis Center
03:36PM 41.1633 -96.4336 267° West 149 171 10,500  Level Minneapolis Center
03:37PM 41.1606 -96.4858 266° West 144 166 10,500  Level Minneapolis Center
03:38PM 41.1575 -96.5383 266° West 143 165 10,500  Level Minneapolis Center
03:39PM 41.1561 -96.5917 268° West 144 166 10,500 240 Level Minneapolis Center
03:40PM 41.1531 -96.6556 266° West 145 167 11,000 420 Climbing Minneapolis Center
03:41PM 41.1528 -96.6942 269° West 116 133 11,400 240 Climbing Minneapolis Center
03:42PM 41.1514 -96.7333 267° West 109 125 11,600 240 Climbing Minneapolis Center
03:43PM 41.1453 -96.7742 259° West 110 127 11,900 240 Climbing Minneapolis Center
03:44PM 41.1428 -96.8153 265° West 112 129 12,200 240 Climbing Minneapolis Center
03:45PM 41.1433 -96.8572 271° West 114 131 12,400 120 Climbing Minneapolis Center
03:46PM 41.1419 -96.9089 268° West 116 133 12,500 60 Climbing Minneapolis Center
03:47PM 41.1378 -96.9561 263° West 125 144 12,600  Climbing Minneapolis Center
03:48PM 41.1336 -97.0050 264° West 131 151 12,500 -60 Descending Minneapolis Center
03:50PM 41.1339 -97.0561 270° West 136 157 12,500  Level Minneapolis Center
03:51PM 41.1317 -97.1169 267° West 137 158 12,500  Level Minneapolis Center
03:52PM 41.1297 -97.1667 267° West 137 158 12,600  Climbing Minneapolis Center
03:53PM 41.1250 -97.2178 263° West 138 159 12,500 -60 Descending Minneapolis Center
03:54PM 41.1222 -97.2800 267° West 140 161 12,500  Level Minneapolis Center
03:55PM 41.1228 -97.3308 271° West 139 160 12,500  Level Minneapolis Center
03:56PM 41.1197 -97.3814 265° West 138 159 12,500 -540 Level Minneapolis Center
03:57PM 41.1133 -97.4400 262° West 150 173 11,400 -960 Descending Minneapolis Center
03:58PM 41.1119 -97.5058 268° West 174 200 10,600 -720 Descending Minneapolis Center
03:59PM 41.1069 -97.5653 264° West 166 191 10,000 -300 Descending Minneapolis Center
04:00PM 41.1083 -97.6183 272° West 149 171 10,000  Level Minneapolis Center
04:01PM 41.1078 -97.6708 269° West 143 165 10,000  Level Minneapolis Center
04:02PM 41.0986 -97.7186 256° West 136 157 10,000  Level Minneapolis Center
04:03PM 41.0981 -97.7794 269° West 137 158 10,000  Level Minneapolis Center
04:04PM 41.0928 -97.8289 262° West 135 155 10,000  Level Minneapolis Center
04:05PM 41.0894 -97.8797 265° West 138 159 10,000  Level Minneapolis Center
04:06PM 41.0864 -97.9314 266° West 139 160 10,000  Level Minneapolis Center
04:07PM 41.0828 -97.9814 265° West 138 159 10,000  Level Minneapolis Center
04:08PM 41.0814 -98.0208 267° West 136 157 10,000  Level Minneapolis Center
04:09PM 41.0764 -98.0825 264° West 139 160 10,000  Level Minneapolis Center
04:10PM 41.0731 -98.1447 266° West 141 162 10,000  Level Minneapolis Center
04:11PM 41.0700 -98.1967 266° West 141 162 10,000  Level Minneapolis Center
04:12PM 41.0669 -98.2472 265° West 138 159 10,000  Level Minneapolis Center
04:13PM 41.0631 -98.2997 264° West 141 162 10,000  Level Minneapolis Center
04:14PM 41.0594 -98.3508 265° West 141 162 10,000  Level Minneapolis Center
04:15PM 41.0556 -98.4033 264° West 142 163 10,000  Level Minneapolis Center
04:16PM 41.0539 -98.4556 268° West 142 163 10,000 -60 Level Minneapolis Center
04:17PM 41.0503 -98.5197 266° West 145 167 9,900  Descending Minneapolis Center
04:18PM 41.0469 -98.5736 265° West 146 168 10,000  Climbing Minneapolis Center
04:19PM 41.0442 -98.6269 266° West 146 168 9,900 -60 Descending Minneapolis Center
04:20PM 41.0403 -98.6789 264° West 144 166 9,900  Level Minneapolis Center
04:22PM 41.0258 -98.7136 241° Southwest 138 159 10,000  Climbing Minneapolis Center
04:23PM 41.0092 -98.7694 248° West 135 155 10,000  Level Minneapolis Center
04:24PM 40.9944 -98.8161 247° West 135 155 10,000  Level Minneapolis Center
04:25PM 40.9842 -98.8661 255° West 138 159 10,000  Level Minneapolis Center
04:26PM 40.9722 -98.9236 255° West 137 158 10,000  Level Minneapolis Center
04:27PM 40.9592 -98.9728 251° West 138 159 10,000  Level Minneapolis Center
04:28PM 40.9453 -99.0219 250° West 140 161 10,000  Level Minneapolis Center
04:29PM 40.9317 -99.0717 250° West 142 163 10,000  Level Minneapolis Center
04:30PM 40.9181 -99.1211 250° West 143 165 10,000 -120 Level Minneapolis Center
04:30PM 40.9117 -99.1394 245° Southwest 142 163 9,900 -120 Descending Denver Center
04:31PM 40.8950 -99.1847 244° Southwest 138 159 9,900  Level Denver Center
04:32PM 40.8794 -99.2319 246° West 139 160 9,900  Level Denver Center
04:33PM 40.8642 -99.2833 249° West 147 169 9,900  Level Denver Center
04:34PM 40.8467 -99.3319 245° Southwest 147 169 9,900  Level Denver Center
04:35PM 40.8361 -99.3858 256° West 150 173 9,900  Level Denver Center
04:36PM 40.8319 -99.4414 264° West 152 175 9,900  Level Denver Center
04:37PM 40.8264 -99.4981 263° West 154 177 9,900  Level Denver Center
04:38PM 40.8181 -99.5644 261° West 153 176 9,900  Level Denver Center
04:39PM 40.8114 -99.6194 261° West 152 175 9,900  Level Denver Center
04:40PM 40.8058 -99.6719 262° West 147 169 9,900  Level Denver Center
04:41PM 40.8036 -99.7267 267° West 148 170 9,900  Level Denver Center
04:42PM 40.8019 -99.7825 268° West 151 174 10,000  Climbing Denver Center
04:43PM 40.8000 -99.8364 267° West 150 173 10,000  Level Denver Center
04:44PM 40.7972 -99.8972 267° West 150 173 10,000  Level Denver Center
04:45PM 40.7953 -99.9492 267° West 149 171 10,000  Level Denver Center
04:47PM 40.7922 -100.0094 266° West 148 170 10,000  Level Denver Center
04:48PM 40.7897 -100.0597 266° West 145 167 10,000  Level Denver Center
04:49PM 40.7858 -100.1181 265° West 143 165 10,000  Level Denver Center
04:50PM 40.7831 -100.1681 266° West 142 163 10,000  Level Denver Center
04:51PM 40.7803 -100.2183 266° West 143 165 10,000  Level Denver Center
04:52PM 40.7775 -100.2789 267° West 147 169 10,000  Level Denver Center
04:53PM 40.7764 -100.3303 268° West 147 169 10,000  Level Denver Center
04:54PM 40.7733 -100.3897 266° West 146 168 10,000  Level Denver Center
04:55PM 40.7700 -100.4403 265° West 145 167 10,000 -60 Level Denver Center
04:56PM 40.7675 -100.4911 266° West 144 166 9,900  Descending Denver Center
04:57PM 40.7642 -100.5500 266° West 145 167 10,000  Climbing Denver Center
04:58PM 40.7614 -100.6014 266° West 146 168 10,000  Level Denver Center
04:59PM 40.7600 -100.6608 268° West 145 167 10,000  Level Denver Center
05:00PM 40.7583 -100.7128 268° West 146 168 10,000  Level Denver Center
05:01PM 40.7572 -100.7658 268° West 148 170 10,000  Level Denver Center
05:02PM 40.7569 -100.8269 270° West 148 170 10,000  Level Denver Center
05:03PM 40.7533 -100.8792 265° West 148 170 10,000  Level Denver Center
05:04PM 40.7486 -100.9403 264° West 150 173 10,000  Level Denver Center
05:05PM 40.7444 -100.9925 264° West 149 171 10,100  Climbing Denver Center
05:06PM 40.7403 -101.0522 265° West 147 169 10,000 -60 Descending Denver Center
05:07PM 40.7369 -101.1044 265° West 149 171 10,000  Level Denver Center
05:08PM 40.7389 -101.1569 273° West 150 173 10,100  Climbing Denver Center
05:09PM 40.7317 -101.2169 261° West 149 171 10,000 -60 Descending Denver Center
05:10PM 40.7303 -101.2683 268° West 147 169 10,000  Level Denver Center
05:11PM 40.7253 -101.3308 264° West 150 173 10,000  Level Denver Center
05:12PM 40.7219 -101.3839 265° West 152 175 10,000  Level Denver Center
05:13PM 40.7172 -101.4533 265° West 151 174 10,000  Level Denver Center
05:15PM 40.7139 -101.5067 265° West 150 173 10,000  Level Denver Center
05:16PM 40.7111 -101.5686 267° West 151 174 10,000  Level Denver Center
05:17PM 40.7072 -101.6214 264° West 152 175 10,000  Level Denver Center
05:18PM 40.7036 -101.6817 266° West 149 171 10,100  Climbing Denver Center
05:19PM 40.7006 -101.7356 266° West 150 173 10,100  Level Denver Center
05:20PM 40.6964 -101.7969 265° West 151 174 10,100  Level Denver Center
05:21PM 40.6933 -101.8503 266° West 152 175 10,100  Level Denver Center
05:22PM 40.6875 -101.9028 262° West 152 175 10,200 -60 Climbing Denver Center
05:23PM 40.6858 -101.9664 268° West 154 177 10,000 -120 Descending Denver Center
05:24PM 40.6822 -102.0225 265° West 157 181 10,000  Level Denver Center
05:25PM 40.6800 -102.0850 267° West 156 180 10,000  Level Denver Center
05:26PM 40.6783 -102.1369 268° West 151 174 10,100  Climbing Denver Center
05:27PM 40.6747 -102.1997 266° West 152 175 10,000 -60 Descending Denver Center
05:28PM 40.6722 -102.2558 267° West 156 180 10,000  Level Denver Center
05:29PM 40.6656 -102.3203 262° West 159 183 10,000  Level Denver Center
05:30PM 40.6606 -102.3744 263° West 157 181 10,000  Level Denver Center
05:31PM 40.6514 -102.4386 259° West 158 182 10,000  Level Denver Center
05:32PM 40.6356 -102.4897 248° West 157 181 10,100  Climbing Denver Center
05:33PM 40.6250 -102.5439 256° West 159 183 10,100  Level Denver Center
05:34PM 40.6136 -102.6081 257° West 160 184 10,200  Climbing Denver Center
05:35PM 40.6019 -102.6636 255° West 162 186 10,200 -60 Level Denver Center
05:36PM 40.5847 -102.7258 250° West 162 186 10,100 -60 Descending Denver Center
05:37PM 40.5703 -102.7789 250° West 162 186 10,100  Level Denver Center
05:38PM 40.5594 -102.8408 257° West 158 182 10,100  Level Denver Center
05:39PM 40.5439 -102.8953 249° West 157 181 10,100  Level Denver Center
05:40PM 40.5294 -102.9497 251° West 157 181 10,100  Level Denver Center
05:41PM 40.5158 -103.0058 252° West 160 184 10,100  Level Denver Center
05:42PM 40.5042 -103.0617 255° West 157 181 10,100 -60 Level Denver Center
05:43PM 40.4911 -103.1172 253° West 157 181 10,000  Descending Denver Center
05:44PM 40.4761 -103.1817 253° West 157 181 10,100  Climbing Denver Center
05:45PM 40.4642 -103.2381 254° West 158 182 10,100  Level Denver Center
05:47PM 40.4519 -103.2939 254° West 158 182 10,100  Level Denver Center
05:48PM 40.4403 -103.3389 251° West 157 181 10,100  Level Denver Center
05:49PM 40.4261 -103.4044 254° West 158 182 10,100 -60 Level Denver Center
05:50PM 40.4131 -103.4608 253° West 159 183 10,000 -60 Descending Denver Center
05:51PM 40.4033 -103.5175 257° West 158 182 10,000 -60 Level Denver Center
05:52PM 40.4114 -103.5756 280° West 156 180 9,900 -180 Descending Denver Center
05:53PM 40.4258 -103.6433 286° West 160 184 9,700  Descending Denver Center
05:54PM 40.4333 -103.6997 280° West 160 184 10,000 120 Climbing Denver Center
05:55PM 40.4361 -103.7556 274° West 153 176 10,000  Level Denver Center
05:56PM 40.4417 -103.8100 278° West 151 174 10,000  Level Denver Center
05:57PM 40.4483 -103.8678 279° West 149 171 10,000  Level Denver Center
05:58PM 40.4442 -103.9219 264° West 151 174 10,000  Level Denver Center
05:59PM 40.4461 -103.9786 273° West 145 167 10,000 -240 Level Denver Center
06:00PM 40.4447 -104.0364 268° West 156 180 9,600 -300 Descending Denver Center
06:01PM 40.4469 -104.0992 273° West 169 194 9,400 -600 Descending Denver Center
06:02PM 40.4419 -104.1675 265° West 178 205 8,400 -720 Descending Denver Center
06:03PM 40.4442 -104.2336 273° West 181 208 8,000 -240 Descending Denver Center
06:04PM 40.4425 -104.2933 268° West 159 183 8,000  Level Denver Center
06:05PM 40.4461 -104.3475 275° West 152 175 8,000  Level Denver Center
06:06PM 40.4489 -104.4081 273° West 155 178 8,000 -60 Level Denver Center
06:07PM 40.4503 -104.4647 272° West 156 180 7,900 -60 Descending Denver Center
06:08PM 40.4483 -104.5192 267° West 152 175 7,900  Level Denver Center
06:09PM 40.4492 -104.5803 271° West 155 178 8,000  Climbing Denver Center
06:10PM 40.4486 -104.6389 269° West 159 183 8,000 -60 Level Denver Center
06:11PM 40.4472 -104.6975 268° West 159 183 7,900 -120 Descending Denver Center